Time;durP1;ratioP1;P1;durP2;ratioP2;P2;SDS_P1;SDS_P2;PMS_P1;PMS_P2;Temp;Humidity;BMP_temperature;BMP_pressure;BME280_temperature;BME280_humidity;BME280_pressure;Samples;Min_cycle;Max_cycle;Signal;HPM_P1;HPM_P2
2022/01/17 00:00:36;;;;;;;54.83;35.13;;;;;;;15.14;38.89;94148.66;4954312;28;20042;-85
2022/01/17 00:03:01;;;;;;;55.00;36.60;;;;;;;15.12;39.13;94145.66;4960814;28;20058;-85
2022/01/17 00:05:27;;;;;;;61.30;40.42;;;;;;;15.11;39.01;94155.06;4937588;28;20054;-85
2022/01/17 00:07:52;;;;;;;56.55;38.25;;;;;;;15.09;39.07;94155.53;4937615;28;20134;-85
2022/01/17 00:10:18;;;;;;;59.03;37.17;;;;;;;15.16;39.16;94157.09;4937288;28;20042;-85
2022/01/17 00:12:45;;;;;;;57.45;38.33;;;;;;;15.15;38.90;94165.75;4953875;28;20106;-85
2022/01/17 00:15:20;;;;;;;57.45;37.78;;;;;;;15.12;39.00;94164.72;4970741;28;20069;-85
2022/01/17 00:17:50;;;;;;;52.70;34.78;;;;;;;15.12;39.13;94144.91;4940107;28;20066;-85
2022/01/17 00:20:24;;;;;;;47.22;32.17;;;;;;;15.11;38.96;94148.88;4937918;28;20034;-85
2022/01/17 00:22:50;;;;;;;50.10;33.28;;;;;;;15.18;38.49;94138.31;4939857;28;20038;-85
2022/01/17 00:25:15;;;;;;;55.65;36.97;;;;;;;15.20;38.68;94154.94;4953612;28;20039;-85
2022/01/17 00:27:40;;;;;;;57.15;38.30;;;;;;;15.12;39.00;94151.13;4921831;28;20043;-85
2022/01/17 00:30:09;;;;;;;57.63;38.45;;;;;;;15.17;38.83;94146.97;4936692;28;20086;-85
2022/01/17 00:32:34;;;;;;;54.50;36.28;;;;;;;15.16;39.12;94146.19;4938250;28;20039;-85
2022/01/17 00:34:59;;;;;;;52.75;35.03;;;;;;;15.18;38.91;94148.47;4937280;28;20057;-85
2022/01/17 00:37:25;;;;;;;55.35;35.55;;;;;;;15.17;38.84;94147.72;4952398;28;20034;-85
2022/01/17 00:39:50;;;;;;;51.28;36.63;;;;;;;15.15;38.90;94133.84;4953247;28;20042;-85
2022/01/17 00:42:16;;;;;;;51.58;35.75;;;;;;;15.19;38.77;94131.66;4952463;28;20552;-85
2022/01/17 00:44:41;;;;;;;52.03;35.83;;;;;;;15.19;38.85;94134.38;4921495;28;20042;-85
2022/01/17 00:47:07;;;;;;;53.25;36.47;;;;;;;15.17;38.76;94127.91;4920771;28;20042;-85
2022/01/17 00:49:35;;;;;;;57.10;38.13;;;;;;;15.10;39.06;94137.22;4937130;28;20418;-85
2022/01/17 00:52:00;;;;;;;52.38;34.72;;;;;;;15.09;38.99;94144.63;4936860;28;20514;-85
2022/01/17 00:54:28;;;;;;;49.40;30.88;;;;;;;15.13;39.20;94139.00;4936645;28;20074;-85
2022/01/17 00:56:53;;;;;;;51.10;35.65;;;;;;;15.05;38.94;94143.31;4953187;28;20043;-85
2022/01/17 00:59:18;;;;;;;57.88;36.80;;;;;;;15.07;39.18;94144.34;4969944;28;20498;-85
2022/01/17 01:01:44;;;;;;;46.00;31.98;;;;;;;15.11;38.99;94133.28;4935942;28;20058;-85
2022/01/17 01:04:09;;;;;;;51.80;36.40;;;;;;;15.12;39.19;94134.03;4936464;28;20039;-85
2022/01/17 01:06:36;;;;;;;43.50;31.23;;;;;;;15.02;39.16;94134.13;4936827;28;20043;-85
2022/01/17 01:09:02;;;;;;;46.22;32.90;;;;;;;15.05;39.15;94132.44;4936729;28;20034;-86
2022/01/17 01:11:27;;;;;;;51.85;35.33;;;;;;;15.08;39.27;94129.53;4920728;28;20601;-85
2022/01/17 01:13:53;;;;;;;45.67;32.63;;;;;;;15.06;39.20;94126.50;4936791;28;20046;-85
2022/01/17 01:29:31;;;;;;;49.35;34.67;;;;;;;15.01;39.09;94102.66;4954810;28;20050;-85
2022/01/17 01:32:06;;;;;;;49.45;35.63;;;;;;;15.05;39.11;94111.41;4952703;28;20043;-85
2022/01/17 01:34:39;;;;;;;49.25;33.92;;;;;;;15.13;39.06;94130.09;4934239;28;20186;-85
2022/01/17 01:37:05;;;;;;;50.08;33.83;;;;;;;15.08;39.09;94123.31;4934067;28;20590;-85
2022/01/17 01:39:31;;;;;;;47.45;33.42;;;;;;;15.03;39.20;94126.69;4949178;28;20043;-85
2022/01/17 01:41:57;;;;;;;49.25;32.08;;;;;;;15.10;38.91;94118.16;4917667;29;20543;-85
2022/01/17 01:44:23;;;;;;;52.75;35.22;;;;;;;15.05;39.10;94113.38;4933061;28;20040;-85
2022/01/17 01:46:49;;;;;;;46.70;31.48;;;;;;;15.04;39.01;94106.41;4950788;28;20050;-85
2022/01/17 01:49:15;;;;;;;47.22;33.83;;;;;;;15.03;39.19;94102.94;4916798;28;20027;-85
2022/01/17 01:51:41;;;;;;;49.30;34.55;;;;;;;14.98;39.33;94109.06;4949200;29;20039;-85
2022/01/17 01:54:07;;;;;;;50.60;35.08;;;;;;;15.04;39.12;94109.91;4932400;28;20043;-85
2022/01/17 01:56:37;;;;;;;48.03;35.25;;;;;;;15.03;39.18;94115.81;4917877;29;20051;-85
2022/01/17 01:59:03;;;;;;;49.78;33.28;;;;;;;15.11;39.02;94127.06;4929561;28;20122;-85
2022/01/17 02:01:28;;;;;;;52.25;35.13;;;;;;;15.05;38.92;94099.75;4911605;29;20070;-85
2022/01/17 02:03:54;;;;;;;41.88;31.88;;;;;;;15.05;38.94;94108.69;4913832;29;20032;-85
2022/01/17 02:06:19;;;;;;;47.03;32.50;;;;;;;15.11;39.13;94106.03;4913506;29;20400;-85
2022/01/17 02:08:45;;;;;;;45.42;32.78;;;;;;;15.06;39.14;94101.25;4924817;29;20047;-85
2022/01/17 02:11:11;;;;;;;41.40;29.67;;;;;;;15.17;38.82;94106.09;4946834;28;20257;-85
2022/01/17 02:13:38;;;;;;;41.60;29.13;;;;;;;15.05;39.29;94100.50;4932069;28;20086;-85
2022/01/17 02:16:04;;;;;;;46.72;33.20;;;;;;;15.10;38.88;94082.75;4931310;28;20462;-85
2022/01/17 02:18:31;;;;;;;43.95;31.30;;;;;;;15.15;38.90;94079.38;4909717;29;20047;-85
2022/01/17 02:23:38;;;;;;;48.65;33.33;;;;;;;15.03;39.17;94075.72;4947375;28;20062;-85
2022/01/17 02:26:03;;;;;;;48.13;31.35;;;;;;;15.12;38.54;94091.22;4932512;28;20036;-85
2022/01/17 02:28:29;;;;;;;48.00;32.88;;;;;;;15.09;39.12;94079.28;4917004;29;20047;-85
2022/01/17 02:30:54;;;;;;;49.33;33.33;;;;;;;15.05;39.37;94076.00;4916263;29;20039;-85
2022/01/17 02:33:19;;;;;;;46.58;33.35;;;;;;;15.08;39.10;94077.03;4932203;28;20055;-85
2022/01/17 02:35:48;;;;;;;36.60;26.17;;;;;;;15.15;38.80;94073.94;4949145;28;20083;-85
2022/01/17 02:38:14;;;;;;;47.22;32.58;;;;;;;15.06;38.97;94076.75;4916033;28;20089;-85
2022/01/17 02:40:39;;;;;;;45.75;30.45;;;;;;;15.16;38.93;94067.22;4932696;28;20039;-85
2022/01/17 02:43:07;;;;;;;45.22;29.80;;;;;;;15.07;39.00;94068.09;4948175;28;20126;-85
2022/01/17 02:45:36;;;;;;;51.67;34.10;;;;;;;15.02;39.26;94054.41;4948698;28;20086;-85
2022/01/17 02:48:06;;;;;;;44.47;32.75;;;;;;;15.02;39.16;94063.31;4933469;28;20110;-85
2022/01/17 02:50:35;;;;;;;46.87;31.77;;;;;;;15.12;39.20;94069.41;4947625;28;20498;-85
2022/01/17 02:53:04;;;;;;;48.42;33.40;;;;;;;15.07;39.01;94070.09;4933380;28;20277;-85
2022/01/17 02:55:30;;;;;;;44.58;31.73;;;;;;;15.14;38.99;94068.94;4932725;28;20047;-85
2022/01/17 02:57:55;;;;;;;49.33;33.97;;;;;;;15.05;38.88;94051.50;4916937;29;20035;-85
2022/01/17 03:00:21;;;;;;;44.28;30.88;;;;;;;15.02;39.19;94055.16;4912494;29;20032;-85
2022/01/17 03:02:48;;;;;;;42.45;28.67;;;;;;;15.04;39.30;94057.41;4919019;29;20134;-85
2022/01/17 03:05:15;;;;;;;45.50;31.38;;;;;;;15.05;39.21;94056.94;4951217;28;20043;-85
2022/01/17 03:07:40;;;;;;;47.60;31.55;;;;;;;15.09;39.22;94051.31;4920248;29;20550;-85
2022/01/17 03:10:12;;;;;;;35.45;27.10;;;;;;;15.11;38.92;94042.66;4935372;28;20063;-85
2022/01/17 03:12:37;;;;;;;49.53;31.65;;;;;;;15.06;39.15;94047.56;4936754;29;20043;-85
2022/01/17 03:15:03;;;;;;;45.65;31.52;;;;;;;15.08;38.92;94026.03;4935195;28;20058;-85
2022/01/17 03:17:29;;;;;;;39.33;29.65;;;;;;;15.10;39.14;94039.19;4935820;29;20057;-85
2022/01/17 03:19:55;;;;;;;44.58;29.20;;;;;;;15.05;39.07;94048.03;4952987;28;20054;-85
2022/01/17 03:22:20;;;;;;;46.78;31.52;;;;;;;15.06;39.24;94044.06;4935571;28;20105;-85
2022/01/17 03:24:45;;;;;;;44.20;29.92;;;;;;;15.01;39.03;94034.59;4953213;28;20043;-85
2022/01/17 03:27:11;;;;;;;37.80;27.77;;;;;;;15.08;39.04;94031.50;4950793;28;20052;-85
2022/01/17 03:29:36;;;;;;;46.25;30.05;;;;;;;15.06;39.33;94036.66;4919645;29;20518;-85
2022/01/17 03:32:02;;;;;;;44.42;30.25;;;;;;;15.04;39.25;94038.34;4935587;28;20051;-85
2022/01/17 03:34:27;;;;;;;40.85;30.13;;;;;;;15.01;39.23;94044.75;4950865;28;20138;-85
2022/01/17 03:36:52;;;;;;;45.90;30.35;;;;;;;15.03;39.12;94037.59;4935314;29;20450;-85
2022/01/17 03:39:18;;;;;;;40.40;29.85;;;;;;;14.96;39.04;94037.22;4951091;28;20035;-85
2022/01/17 03:41:43;;;;;;;43.67;27.27;;;;;;;14.97;39.16;94034.03;4935304;29;20031;-85
2022/01/17 03:44:09;;;;;;;45.88;29.98;;;;;;;14.99;39.31;94036.28;4919181;28;20047;-85
2022/01/17 03:46:35;;;;;;;39.65;27.80;;;;;;;14.98;39.32;94023.91;4919039;29;20035;-85
2022/01/17 03:49:00;;;;;;;47.08;32.55;;;;;;;15.00;38.90;94029.63;4919369;29;20502;-85
2022/01/17 03:51:26;;;;;;;41.78;28.67;;;;;;;15.00;39.16;94035.81;4918359;29;20043;-85
2022/01/17 03:53:51;;;;;;;44.38;29.70;;;;;;;14.99;39.15;94037.03;4935172;29;20042;-85
2022/01/17 03:56:18;;;;;;;39.50;26.67;;;;;;;15.09;38.83;94022.09;4918514;28;20122;-85
2022/01/17 03:58:45;;;;;;;46.45;30.95;;;;;;;15.14;38.97;94045.19;4931658;28;20277;-85
2022/01/17 04:01:10;;;;;;;42.38;30.55;;;;;;;15.04;38.79;94025.50;4910817;29;20066;-85
2022/01/17 04:03:35;;;;;;;44.85;29.65;;;;;;;15.01;38.95;94031.88;4932541;29;20499;-85
2022/01/17 04:06:01;;;;;;;35.45;26.55;;;;;;;14.99;39.52;94031.59;4918913;29;20429;-85
2022/01/17 04:08:26;;;;;;;41.13;29.00;;;;;;;15.11;38.78;94029.03;4934525;28;20039;-85
2022/01/17 04:10:52;;;;;;;38.60;27.00;;;;;;;15.09;39.19;94049.34;4918501;29;20093;-85
2022/01/17 04:13:18;;;;;;;43.28;27.00;;;;;;;15.04;39.13;94038.34;4933244;28;20031;-85
2022/01/17 04:15:43;;;;;;;42.03;29.55;;;;;;;14.99;39.15;94037.03;4935100;28;20036;-85
2022/01/17 04:18:09;;;;;;;37.00;26.40;;;;;;;15.02;39.42;94035.34;4949750;28;20133;-85
2022/01/17 04:20:34;;;;;;;42.50;29.45;;;;;;;15.06;39.24;94035.91;4918658;29;20720;-85
2022/01/17 04:23:02;;;;;;;42.10;28.38;;;;;;;15.06;39.10;94035.91;4950210;28;20078;-85
2022/01/17 04:25:30;;;;;;;38.58;27.00;;;;;;;15.13;39.12;94037.50;4934891;28;20097;-85
2022/01/17 04:27:58;;;;;;;34.40;25.20;;;;;;;15.15;38.84;94038.53;4918869;29;20031;-85
2022/01/17 04:30:23;;;;;;;34.75;26.17;;;;;;;15.14;38.84;94028.09;4933528;28;20039;-85
2022/01/17 04:32:49;;;;;;;41.65;29.65;;;;;;;15.06;39.07;94039.38;4918328;29;20603;-85
2022/01/17 04:35:20;;;;;;;41.15;29.38;;;;;;;15.03;38.90;94036.84;4914520;28;20464;-85
2022/01/17 04:37:50;;;;;;;40.17;26.48;;;;;;;15.01;39.12;94050.19;4900561;29;20035;-85
2022/01/17 04:40:16;;;;;;;41.35;27.52;;;;;;;15.04;39.12;94049.25;4900155;28;20091;-85
2022/01/17 04:42:43;;;;;;;33.67;24.48;;;;;;;15.11;38.85;94051.59;4915332;29;20043;-85
2022/01/17 04:45:11;;;;;;;38.33;27.65;;;;;;;15.12;38.79;94028.56;4914928;28;20042;-85
2022/01/17 04:47:37;;;;;;;42.72;28.05;;;;;;;15.11;38.86;94018.91;4900101;29;20044;-85
2022/01/17 04:50:04;;;;;;;39.20;26.55;;;;;;;15.02;38.95;94010.84;4914773;29;20047;-84
2022/01/17 04:52:30;;;;;;;38.17;25.70;;;;;;;15.08;38.82;94004.25;4915241;29;20404;-85
2022/01/17 04:55:00;;;;;;;45.72;29.52;;;;;;;15.08;39.34;94004.25;4915065;29;20043;-85
2022/01/17 04:57:25;;;;;;;41.33;28.02;;;;;;;15.02;39.30;93997.97;4936975;28;20183;-85
2022/01/17 04:59:51;;;;;;;41.13;29.40;;;;;;;15.01;39.27;94015.53;4950164;28;20038;-85
2022/01/17 05:02:16;;;;;;;32.85;24.13;;;;;;;15.05;39.09;94010.66;4946201;28;20046;-85
2022/01/17 05:04:44;;;;;;;34.78;26.15;;;;;;;15.07;39.34;94007.47;4933852;28;20043;-85
2022/01/17 05:07:09;;;;;;;33.40;24.85;;;;;;;15.02;39.25;94019.00;4917754;28;20074;-85
2022/01/17 05:09:35;;;;;;;38.15;27.58;;;;;;;15.06;39.58;94031.22;4918272;29;20039;-85
2022/01/17 05:12:01;;;;;;;36.95;26.85;;;;;;;14.99;39.01;94037.03;4933616;29;20591;-85
2022/01/17 05:14:27;;;;;;;36.28;24.92;;;;;;;14.99;39.26;94028.13;4949200;28;20047;-85
2022/01/17 05:17:01;;;;;;;38.10;28.33;;;;;;;15.01;39.48;94022.97;4933681;29;20032;-85
2022/01/17 05:22:10;;;;;;;36.78;27.35;;;;;;;15.01;39.34;94003.91;4935808;28;20045;-85
2022/01/17 05:24:35;;;;;;;42.25;29.02;;;;;;;15.04;39.14;94000.97;4951034;28;20341;-85
2022/01/17 05:27:01;;;;;;;40.53;28.67;;;;;;;15.00;39.41;93989.53;4949322;28;20395;-85
2022/01/17 05:29:26;;;;;;;38.95;27.00;;;;;;;15.11;39.26;93999.84;4932869;28;20043;-85
2022/01/17 05:31:52;;;;;;;38.38;28.05;;;;;;;15.03;39.43;94001.47;4948915;28;20596;-86
2022/01/17 05:34:17;;;;;;;42.75;26.23;;;;;;;15.11;39.08;94018.91;4933345;28;20114;-85
2022/01/17 05:36:43;;;;;;;40.80;28.27;;;;;;;15.17;39.49;94011.53;4932859;28;20086;-86
2022/01/17 05:39:08;;;;;;;40.17;27.80;;;;;;;15.07;39.34;94021.06;4949349;28;20055;-84
2022/01/17 05:41:34;;;;;;;35.90;26.15;;;;;;;15.25;39.49;94020.81;4948656;28;20495;-84
2022/01/17 05:43:59;;;;;;;39.92;27.60;;;;;;;15.16;39.16;94001.13;4917170;29;20468;-86
2022/01/17 05:46:25;;;;;;;40.90;28.92;;;;;;;15.17;39.44;93999.91;4932300;28;20074;-83
2022/01/17 05:48:50;;;;;;;41.58;28.30;;;;;;;15.10;38.81;94011.97;4929740;28;20048;-87
2022/01/17 05:51:16;;;;;;;39.65;29.33;;;;;;;15.13;39.05;94015.72;4900602;28;20054;-86
2022/01/17 05:53:41;;;;;;;48.60;31.73;;;;;;;15.19;38.95;94005.63;4928440;29;20537;-85
2022/01/17 05:56:06;;;;;;;43.65;29.00;;;;;;;15.14;38.91;94001.63;4909966;28;20455;-85
2022/01/17 05:58:32;;;;;;;56.72;26.52;;;;;;;14.99;37.73;94001.66;4925987;28;20387;-85
2022/01/17 06:00:57;;;;;;;90.95;30.38;;;;;;;14.96;37.65;94002.59;4931386;28;20477;-89
2022/01/17 06:03:25;;;;;;;117.22;41.38;;;;;;;14.98;37.72;94013.00;4932419;28;20126;-84
2022/01/17 06:05:51;;;;;;;138.27;51.42;;;;;;;14.94;37.95;93985.25;4931892;28;20525;-86
2022/01/17 06:08:16;;;;;;;119.32;47.72;;;;;;;15.00;38.39;93994.97;4913649;28;20071;-84
2022/01/17 06:10:42;;;;;;;124.85;51.03;;;;;;;15.05;38.24;93977.22;4915030;29;20082;-84
2022/01/17 06:13:07;;;;;;;102.20;43.00;;;;;;;15.10;38.47;93968.41;4933192;28;20392;-84
2022/01/17 06:15:33;;;;;;;112.10;47.30;;;;;;;15.08;38.80;93949.81;4948579;28;20815;-84
2022/01/17 06:17:58;;;;;;;136.50;52.70;;;;;;;15.18;38.58;93958.56;4931996;28;20043;-83
2022/01/17 06:20:24;;;;;;;123.93;54.97;;;;;;;15.17;39.22;93961.78;4945484;28;20036;-85
2022/01/17 06:22:49;;;;;;;129.23;53.30;;;;;;;15.21;38.93;93962.31;4949378;28;20457;-83
2022/01/17 06:25:16;;;;;;;141.02;55.65;;;;;;;15.17;38.79;93951.63;4949678;28;20047;-84
2022/01/17 06:27:41;;;;;;;170.68;64.75;;;;;;;15.19;38.57;93959.31;4947487;28;20079;-84
2022/01/17 06:30:11;;;;;;;168.35;66.80;;;;;;;15.20;38.71;93955.38;4936816;28;20031;-88
2022/01/17 06:32:37;;;;;;;174.20;70.30;;;;;;;15.14;39.08;93955.34;4913882;29;20161;-85
2022/01/17 06:35:04;;;;;;;164.27;66.15;;;;;;;15.13;38.45;93972.88;4947871;28;20066;-84
2022/01/17 06:37:30;;;;;;;120.47;53.38;;;;;;;15.01;37.92;93982.88;4932482;29;20660;-88
2022/01/17 06:39:55;;;;;;;89.93;41.95;;;;;;;14.90;37.49;93999.06;4930675;29;20134;-88
2022/01/17 06:42:21;;;;;;;81.68;34.60;;;;;;;14.79;37.05;94000.84;4913201;28;20039;-88
2022/01/17 06:44:47;;;;;;;73.30;32.40;;;;;;;14.72;37.05;94002.75;4948125;28;20102;-88
2022/01/17 06:47:13;;;;;;;74.63;33.08;;;;;;;14.69;36.85;94002.97;4951327;28;20053;-88
2022/01/17 06:49:38;;;;;;;193.25;49.03;;;;;;;14.66;36.78;94006.63;4950201;28;20050;-85
2022/01/17 06:52:04;;;;;;;216.73;63.00;;;;;;;14.61;36.83;94010.75;4936881;28;20031;-85
2022/01/17 06:54:29;;;;;;;133.98;42.05;;;;;;;14.60;36.76;94013.94;4952136;28;20850;-86
2022/01/17 06:56:55;;;;;;;144.88;49.33;;;;;;;14.54;36.65;94004.94;4920035;29;20051;-85
2022/01/17 06:59:21;;;;;;;136.27;47.97;;;;;;;14.44;36.31;94020.63;4955140;28;20398;-88
2022/01/17 07:01:47;;;;;;;130.77;42.60;;;;;;;14.54;36.78;94013.09;4960831;28;20048;-84
2022/01/17 07:04:13;;;;;;;154.77;49.47;;;;;;;14.63;36.67;94021.16;4940673;28;20043;-85
2022/01/17 07:06:39;;;;;;;99.10;40.13;;;;;;;14.73;36.54;93998.78;4937000;29;20090;-81
2022/01/17 07:09:11;;;;;;;146.30;43.50;;;;;;;14.80;36.71;93965.00;4935019;28;20035;-83
2022/01/17 07:11:38;;;;;;;174.10;47.45;;;;;;;14.91;37.54;93967.91;4938757;28;20047;-84
2022/01/17 07:14:05;;;;;;;105.57;44.85;;;;;;;14.94;37.47;93972.38;4951234;28;20122;-88
2022/01/17 07:16:32;;;;;;;143.25;46.15;;;;;;;14.96;37.26;93988.22;4948014;28;20054;-88
2022/01/17 07:18:58;;;;;;;102.45;42.33;;;;;;;14.99;37.32;94003.63;4926255;28;20054;-84
2022/01/17 07:21:23;;;;;;;103.18;40.55;;;;;;;15.06;37.19;94008.69;4941487;28;20071;-85
2022/01/17 07:23:49;;;;;;;102.75;43.38;;;;;;;15.04;37.54;94030.19;4916140;29;20040;-84
2022/01/17 07:26:14;;;;;;;104.53;41.90;;;;;;;14.99;37.29;94026.16;4945603;28;20512;-87
2022/01/17 07:28:40;;;;;;;94.13;38.53;;;;;;;15.06;37.05;94027.75;4937171;29;20039;-85
2022/01/17 07:31:05;;;;;;;94.05;38.88;;;;;;;15.02;37.30;94043.50;4927122;28;20692;-83
2022/01/17 07:33:37;;;;;;;98.07;42.33;;;;;;;15.02;37.48;94065.28;4931311;29;20407;-85
2022/01/17 07:36:03;;;;;;;82.38;35.42;;;;;;;15.05;37.25;94059.66;4935319;28;20043;-84
2022/01/17 07:38:29;;;;;;;79.65;35.55;;;;;;;15.03;37.34;94026.72;4915543;29;20055;-85
2022/01/17 07:40:54;;;;;;;97.45;36.00;;;;;;;15.06;37.36;94049.53;4934543;28;20035;-86
2022/01/17 07:43:20;;;;;;;106.40;39.53;;;;;;;15.07;37.34;94040.13;4946409;28;20066;-86
2022/01/17 07:45:56;;;;;;;108.38;41.20;;;;;;;15.11;37.46;94027.06;4929308;28;20487;-86
2022/01/17 07:51:06;;;;;;;158.82;54.95;;;;;;;15.11;37.37;94029.03;4936325;28;20086;-87
2022/01/17 07:53:31;;;;;;;132.48;48.05;;;;;;;15.03;37.43;94020.50;4911706;29;20047;-85
2022/01/17 07:55:57;;;;;;;118.90;53.03;;;;;;;15.12;37.21;94004.06;4932336;28;20043;-84
2022/01/17 07:58:22;;;;;;;176.80;77.55;;;;;;;15.12;37.43;94014.22;4949833;28;20075;-88
2022/01/17 08:00:48;;;;;;;160.13;72.75;;;;;;;15.13;37.39;94002.84;4917346;29;20800;-85
2022/01/17 08:03:13;;;;;;;183.00;87.57;;;;;;;15.09;37.44;94013.94;4948793;28;20177;-85
2022/01/17 08:05:39;;;;;;;171.32;82.32;;;;;;;15.11;37.47;94015.44;4934780;28;20462;-86
2022/01/17 08:08:04;;;;;;;258.92;122.90;;;;;;;15.04;37.47;94011.13;4936636;28;20477;-86
2022/01/17 08:10:30;;;;;;;297.70;136.60;;;;;;;15.09;37.20;94013.94;4929443;28;20047;-87
2022/01/17 08:12:55;;;;;;;307.17;133.57;;;;;;;15.01;37.45;94026.44;4932078;29;20051;-85
2022/01/17 08:15:21;;;;;;;236.60;108.80;;;;;;;15.12;37.51;94019.66;4949223;28;20039;-86
2022/01/17 08:17:46;;;;;;;208.95;91.47;;;;;;;15.17;37.90;94032.56;4936057;28;20039;-88
2022/01/17 08:20:12;;;;;;;246.43;113.07;;;;;;;15.16;37.69;94036.53;4933923;28;20387;-85
2022/01/17 08:22:38;;;;;;;267.88;130.60;;;;;;;15.17;37.49;94032.56;4931159;29;20047;-86
2022/01/17 08:25:03;;;;;;;262.58;120.72;;;;;;;15.14;37.70;94003.59;4930111;28;20407;-89
2022/01/17 08:27:29;;;;;;;250.38;118.13;;;;;;;15.21;37.28;94009.38;4916464;29;20071;-90
2022/01/17 08:29:55;;;;;;;215.35;101.38;;;;;;;15.24;37.33;93986.63;4921198;28;20046;-88
2022/01/17 08:32:20;;;;;;;264.67;129.98;;;;;;;15.22;37.41;93974.72;4914230;28;20909;-88
2022/01/17 08:34:46;;;;;;;245.70;110.90;;;;;;;15.22;37.52;93985.59;4933509;28;20078;-91
2022/01/17 08:37:11;;;;;;;225.40;105.90;;;;;;;15.25;37.43;93996.31;4934202;28;20043;-89
2022/01/17 08:39:37;;;;;;;217.23;104.63;;;;;;;15.22;37.67;93999.97;4934429;29;20042;-89
2022/01/17 08:42:10;;;;;;;234.68;109.25;;;;;;;15.15;37.85;93992.22;4951197;28;20043;-87
2022/01/17 08:44:36;;;;;;;226.10;110.25;;;;;;;15.17;37.58;93997.94;4952184;28;20086;-86
2022/01/17 08:47:01;;;;;;;206.77;102.55;;;;;;;15.20;37.52;94002.44;4933236;28;20482;-85
2022/01/17 08:49:27;;;;;;;205.38;93.80;;;;;;;15.25;37.50;94015.38;4911369;29;20043;-89
2022/01/17 08:51:52;;;;;;;144.88;71.10;;;;;;;15.14;36.96;94006.31;4934243;28;20043;-87
2022/01/17 08:54:17;;;;;;;159.20;76.80;;;;;;;14.99;37.25;94004.38;4922431;28;20406;-87
2022/01/17 08:56:43;;;;;;;150.55;75.93;;;;;;;15.05;37.40;93994.31;4951305;28;20107;-85
2022/01/17 08:59:08;;;;;;;171.13;80.75;;;;;;;15.08;37.44;93996.09;4949216;28;20043;-84
2022/01/17 09:01:34;;;;;;;175.85;80.43;;;;;;;15.08;37.64;93987.94;4934011;28;20455;-85
2022/01/17 09:03:59;;;;;;;195.63;86.03;;;;;;;15.11;37.92;93991.69;4931377;28;20384;-87
2022/01/17 09:06:25;;;;;;;360.05;115.15;;;;;;;15.11;38.06;94016.19;4918773;28;20066;-86
2022/01/17 09:08:50;;;;;;;217.02;92.18;;;;;;;15.13;37.92;94019.19;4949769;28;20043;-86
2022/01/17 09:11:16;;;;;;;186.10;77.68;;;;;;;15.21;37.95;94020.25;4915873;28;20031;-87
2022/01/17 09:13:42;;;;;;;201.40;89.93;;;;;;;15.21;37.59;94025.72;4936850;28;20066;-89
2022/01/17 09:16:08;;;;;;;206.18;82.30;;;;;;;15.20;37.66;94007.88;4932870;28;20714;-89
2022/01/17 09:18:34;;;;;;;199.18;86.47;;;;;;;15.28;37.46;93997.34;4934495;28;20051;-88
2022/01/17 09:20:59;;;;;;;147.93;68.20;;;;;;;15.26;37.03;94024.28;4918320;29;20482;-88
2022/01/17 09:23:25;;;;;;;171.05;71.13;;;;;;;15.15;37.28;94021.44;4937712;28;20334;-87
2022/01/17 09:25:51;;;;;;;183.18;73.25;;;;;;;15.15;37.31;94018.72;4936066;29;20835;-88
2022/01/17 09:28:16;;;;;;;179.45;75.82;;;;;;;15.18;37.48;94013.03;4929962;28;20043;-87
2022/01/17 09:30:42;;;;;;;171.32;79.80;;;;;;;15.11;37.53;94016.19;4915362;29;20419;-87
2022/01/17 09:33:07;;;;;;;194.10;84.13;;;;;;;15.11;38.11;94010.72;4918958;28;20050;-86
2022/01/17 09:35:33;;;;;;;167.85;76.38;;;;;;;15.19;37.97;94002.91;4951735;28;20055;-85
2022/01/17 09:37:59;;;;;;;185.93;72.80;;;;;;;15.29;37.49;94028.78;4919847;28;20047;-86
2022/01/17 09:40:24;;;;;;;190.88;80.57;;;;;;;15.27;37.45;94021.09;4919311;28;20114;-86
2022/01/17 09:42:50;;;;;;;207.05;83.65;;;;;;;15.17;37.70;94002.63;4939178;28;20043;-84
2022/01/17 09:45:18;;;;;;;221.77;95.97;;;;;;;15.17;37.92;94002.63;4950295;28;20035;-83
2022/01/17 09:47:44;;;;;;;225.80;100.22;;;;;;;15.20;37.80;93999.69;4950889;28;20043;-83
2022/01/17 09:50:13;;;;;;;219.10;95.50;;;;;;;15.19;38.04;94005.63;4935008;28;20498;-85
2022/01/17 09:52:52;;;;;;;142.00;62.58;;;;;;;15.13;37.47;94005.56;4935805;28;20125;-84
2022/01/17 09:55:24;;;;;;;146.82;65.55;;;;;;;15.02;37.69;94005.41;4942543;28;20039;-84
2022/01/17 09:57:55;;;;;;;150.23;69.68;;;;;;;15.07;37.49;94016.38;4934088;28;20053;-84
2022/01/17 10:00:26;;;;;;;169.23;75.32;;;;;;;15.09;38.02;93999.56;4946848;28;20046;-85
2022/01/17 10:02:56;;;;;;;185.18;85.80;;;;;;;15.15;38.13;94019.47;4962508;28;20637;-84
2022/01/17 10:05:22;;;;;;;226.25;92.97;;;;;;;15.10;38.60;94003.78;4932580;28;21672;-87
2022/01/17 10:07:56;;;;;;;184.40;83.20;;;;;;;15.14;38.50;94014.50;4929032;28;20504;-85
2022/01/17 10:10:37;;;;;;;175.75;77.78;;;;;;;15.21;38.62;94019.50;4940793;28;20130;-84
2022/01/17 10:13:12;;;;;;;299.40;100.40;;;;;;;15.19;38.87;94009.09;4971211;28;20066;-85
2022/01/17 10:15:46;;;;;;;161.95;72.55;;;;;;;15.23;39.07;94001.47;4948488;28;20078;-85
2022/01/17 10:18:39;;;;;;;152.02;72.00;;;;;;;15.16;38.63;94020.19;4948079;28;20101;-86
2022/01/17 10:21:16;;;;;;;184.45;79.28;;;;;;;15.15;39.04;94019.47;4951635;28;20031;-85
2022/01/17 10:24:00;;;;;;;169.57;76.68;;;;;;;15.22;38.87;94010.88;4939293;28;20047;-85
2022/01/17 10:34:54;;;;;;;189.73;64.57;;;;;;;14.92;38.27;94007.50;4952733;28;20144;-87
2022/01/17 10:37:22;;;;;;;153.60;58.38;;;;;;;14.99;38.39;94000.91;4932947;28;20058;-88
2022/01/17 10:39:54;;;;;;;180.70;69.07;;;;;;;15.01;38.41;94001.94;4921191;29;20063;-87
2022/01/17 10:42:25;;;;;;;163.15;64.95;;;;;;;15.03;38.46;93993.28;4950565;28;20419;-86
2022/01/17 10:44:51;;;;;;;;;;;;;;;15.08;38.81;93998.81;4954773;28;20466;-87
2022/01/17 10:47:20;;;;;;;226.05;99.63;;;;;;;15.09;38.99;93991.41;4964579;28;19922;-88
2022/01/17 10:49:50;;;;;;;228.90;102.38;;;;;;;15.11;39.41;93978.06;4955942;28;20054;-86
2022/01/17 10:52:35;;;;;;;261.57;116.80;;;;;;;15.15;39.29;93966.97;4939356;28;20043;-87
2022/01/17 10:55:07;;;;;;;262.42;124.15;;;;;;;15.16;39.15;93963.75;4937639;28;20047;-85
2022/01/17 10:57:34;;;;;;;248.95;111.78;;;;;;;15.19;38.88;93962.03;4926088;29;20134;-86
2022/01/17 11:00:00;;;;;;;237.90;103.18;;;;;;;15.16;39.33;93974.63;4950203;28;20110;-85
2022/01/17 11:02:25;;;;;;;281.58;117.63;;;;;;;15.18;39.23;93977.63;4933137;28;20502;-87
2022/01/17 11:04:52;;;;;;;274.17;116.40;;;;;;;15.24;39.46;93956.69;4923884;29;20082;-87
2022/01/17 11:07:17;;;;;;;274.15;120.68;;;;;;;15.27;39.05;93972.06;4921121;28;20067;-86
2022/01/17 11:09:46;;;;;;;280.55;124.30;;;;;;;15.28;39.72;93968.13;4951674;28;20130;-87
2022/01/17 11:12:13;;;;;;;269.38;117.10;;;;;;;15.30;39.62;93987.47;4937174;28;20036;-84
2022/01/17 11:14:39;;;;;;;241.45;113.40;;;;;;;15.39;39.26;93976.41;4919203;29;20036;-85
2022/01/17 11:17:35;;;;;;;244.52;113.00;;;;;;;15.36;39.56;93980.13;4947028;28;20055;-83
2022/01/17 11:20:04;;;;;;;233.02;102.13;;;;;;;15.49;39.44;93979.75;4881756;29;20575;-85
2022/01/17 11:22:30;;;;;;;222.10;97.82;;;;;;;15.46;39.00;93986.16;4894344;29;20043;-84
2022/01/17 11:24:57;;;;;;;205.18;89.65;;;;;;;15.54;39.71;93956.53;4899429;29;20835;-85
2022/01/17 11:27:22;;;;;;;188.55;88.43;;;;;;;15.55;39.20;93958.03;4897290;29;20059;-84
2022/01/17 11:29:48;;;;;;;196.80;92.82;;;;;;;15.53;39.26;93925.81;4906124;29;20044;-84
2022/01/17 11:32:14;;;;;;;182.45;86.10;;;;;;;15.54;38.85;93942.91;4897769;29;20418;-85
2022/01/17 11:34:39;;;;;;;176.85;82.30;;;;;;;15.59;39.11;93932.06;4898649;29;20055;-83
2022/01/17 11:37:05;;;;;;;171.32;80.25;;;;;;;15.63;39.39;93940.06;4913721;29;20117;-83
2022/01/17 11:39:30;;;;;;;157.98;79.07;;;;;;;15.52;39.04;93910.69;4914970;29;20062;-84